sensor_id;sensor_type;location;lat;lon;timestamp;pressure;altitude;pressure_sealevel;temperature
63297;BMP280;49419;51.716;-4.948;2023-05-10T00:02:22;101011.03;;;14.03
63297;BMP280;49419;51.716;-4.948;2023-05-10T00:04:58;101014.50;;;14.04
63297;BMP280;49419;51.716;-4.948;2023-05-10T00:07:27;101014.50;;;14.04
63297;BMP280;49419;51.716;-4.948;2023-05-10T00:09:56;101014.50;;;14.04
63297;BMP280;49419;51.716;-4.948;2023-05-10T00:12:27;101009.94;;;13.97
63297;BMP280;49419;51.716;-4.948;2023-05-10T00:21:17;101005.56;;;13.94
63297;BMP280;49419;51.716;-4.948;2023-05-10T00:23:50;101003.88;;;13.95
63297;BMP280;49419;51.716;-4.948;2023-05-10T00:26:15;101008.22;;;13.96
63297;BMP280;49419;51.716;-4.948;2023-05-10T00:28:42;101011.59;;;13.95
63297;BMP280;49419;51.716;-4.948;2023-05-10T00:31:09;101006.38;;;13.92
63297;BMP280;49419;51.716;-4.948;2023-05-10T00:33:49;101011.44;;;13.89
63297;BMP280;49419;51.716;-4.948;2023-05-10T00:36:22;101004.53;;;13.88
63297;BMP280;49419;51.716;-4.948;2023-05-10T00:42:00;101011.44;;;13.89
63297;BMP280;49419;51.716;-4.948;2023-05-10T00:44:25;101002.72;;;13.85
63297;BMP280;49419;51.716;-4.948;2023-05-10T00:47:01;100989.69;;;13.80
63297;BMP280;49419;51.716;-4.948;2023-05-10T00:49:42;101002.72;;;13.84
63297;BMP280;49419;51.716;-4.948;2023-05-10T00:52:57;100996.44;;;13.76
63297;BMP280;49419;51.716;-4.948;2023-05-10T00:55:43;101003.53;;;13.83
63297;BMP280;49419;51.716;-4.948;2023-05-10T00:58:11;100987.09;;;13.80
63297;BMP280;49419;51.716;-4.948;2023-05-10T01:00:43;100992.28;;;13.81
63297;BMP280;49419;51.716;-4.948;2023-05-10T01:06:49;100980.28;;;13.82
63297;BMP280;49419;51.716;-4.948;2023-05-10T01:09:26;100990.72;;;13.86
63297;BMP280;49419;51.716;-4.948;2023-05-10T01:11:54;100991.59;;;13.86
63297;BMP280;49419;51.716;-4.948;2023-05-10T01:14:22;100992.38;;;13.84
63297;BMP280;49419;51.716;-4.948;2023-05-10T01:17:10;101000.22;;;13.87
63297;BMP280;49419;51.716;-4.948;2023-05-10T01:19:50;100985.47;;;13.83
63297;BMP280;49419;51.716;-4.948;2023-05-10T01:23:12;100994.19;;;13.88
63297;BMP280;49419;51.716;-4.948;2023-05-10T01:28:46;100994.19;;;13.88
63297;BMP280;49419;51.716;-4.948;2023-05-10T01:34:16;100991.75;;;13.92
63297;BMP280;49419;51.716;-4.948;2023-05-10T01:37:15;100987.47;;;13.93
63297;BMP280;49419;51.716;-4.948;2023-05-10T01:40:17;100990.25;;;13.99
63297;BMP280;49419;51.716;-4.948;2023-05-10T01:46:37;100984.25;;;14.00
63297;BMP280;49419;51.716;-4.948;2023-05-10T01:49:41;100988.59;;;14.01
63297;BMP280;49419;51.716;-4.948;2023-05-10T01:52:32;100987.03;;;14.06
63297;BMP280;49419;51.716;-4.948;2023-05-10T01:55:07;100990.41;;;14.03
63297;BMP280;49419;51.716;-4.948;2023-05-10T01:57:43;100998.16;;;14.05
63297;BMP280;49419;51.716;-4.948;2023-05-10T02:00:30;100992.09;;;14.03
63297;BMP280;49419;51.716;-4.948;2023-05-10T02:03:10;101000.88;;;14.09
63297;BMP280;49419;51.716;-4.948;2023-05-10T02:05:48;100996.50;;;14.07
63297;BMP280;49419;51.716;-4.948;2023-05-10T02:08:35;100992.19;;;14.06
63297;BMP280;49419;51.716;-4.948;2023-05-10T02:11:03;101001.75;;;14.10
63297;BMP280;49419;51.716;-4.948;2023-05-10T02:14:01;100991.41;;;14.10
63297;BMP280;49419;51.716;-4.948;2023-05-10T02:16:50;100990.63;;;14.12
63297;BMP280;49419;51.716;-4.948;2023-05-10T02:19:28;100990.84;;;14.19
63297;BMP280;49419;51.716;-4.948;2023-05-10T02:22:27;100988.97;;;14.14
63297;BMP280;49419;51.716;-4.948;2023-05-10T02:25:03;100991.59;;;14.15
63297;BMP280;49419;51.716;-4.948;2023-05-10T02:27:49;100975.13;;;14.11
63297;BMP280;49419;51.716;-4.948;2023-05-10T02:30:50;100976.03;;;14.13
63297;BMP280;49419;51.716;-4.948;2023-05-10T02:33:38;100983.00;;;14.15
63297;BMP280;49419;51.716;-4.948;2023-05-10T02:36:30;100983.00;;;14.16
63297;BMP280;49419;51.716;-4.948;2023-05-10T02:40:02;100985.63;;;14.18
63297;BMP280;49419;51.716;-4.948;2023-05-10T02:42:37;100984.91;;;14.23
63297;BMP280;49419;51.716;-4.948;2023-05-10T02:45:32;100998.81;;;14.28
63297;BMP280;49419;51.716;-4.948;2023-05-10T02:48:03;100991.00;;;14.25
63297;BMP280;49419;51.716;-4.948;2023-05-10T02:50:33;100994.50;;;14.27
63297;BMP280;49419;51.716;-4.948;2023-05-10T02:53:23;100997.00;;;14.24
63297;BMP280;49419;51.716;-4.948;2023-05-10T02:59:20;100988.34;;;14.22
63297;BMP280;49419;51.716;-4.948;2023-05-10T03:02:08;100986.50;;;14.18
63297;BMP280;49419;51.716;-4.948;2023-05-10T03:05:04;101002.91;;;14.20
63297;BMP280;49419;51.716;-4.948;2023-05-10T03:16:36;100991.66;;;14.18
63297;BMP280;49419;51.716;-4.948;2023-05-10T03:19:55;100994.25;;;14.18
63297;BMP280;49419;51.716;-4.948;2023-05-10T03:22:30;101002.00;;;14.18
63297;BMP280;49419;51.716;-4.948;2023-05-10T03:25:28;100997.63;;;14.16
63297;BMP280;49419;51.716;-4.948;2023-05-10T03:31:18;101001.25;;;14.22
63297;BMP280;49419;51.716;-4.948;2023-05-10T03:36:44;100995.09;;;14.17
63297;BMP280;49419;51.716;-4.948;2023-05-10T03:39:30;100983.84;;;14.15
63297;BMP280;49419;51.716;-4.948;2023-05-10T03:42:13;101006.22;;;14.15
63297;BMP280;49419;51.716;-4.948;2023-05-10T03:47:52;100993.91;;;14.07
63297;BMP280;49419;51.716;-4.948;2023-05-10T03:50:38;100995.63;;;14.06
63297;BMP280;49419;51.716;-4.948;2023-05-10T03:53:16;100989.69;;;14.09
63297;BMP280;49419;51.716;-4.948;2023-05-10T03:55:44;100986.84;;;14.00
63297;BMP280;49419;51.716;-4.948;2023-05-10T03:58:15;100998.94;;;14.01
63297;BMP280;49419;51.716;-4.948;2023-05-10T04:00:52;100995.44;;;13.99
63297;BMP280;49419;51.716;-4.948;2023-05-10T04:03:20;100998.75;;;13.96
63297;BMP280;49419;51.716;-4.948;2023-05-10T04:06:02;100999.63;;;13.97
63297;BMP280;49419;51.716;-4.948;2023-05-10T04:08:28;100996.06;;;13.92
63297;BMP280;49419;51.716;-4.948;2023-05-10T04:14:13;100998.63;;;13.92
63297;BMP280;49419;51.716;-4.948;2023-05-10T04:20:26;100997.72;;;13.90
63297;BMP280;49419;51.716;-4.948;2023-05-10T04:23:03;100994.19;;;13.88
63297;BMP280;49419;51.716;-4.948;2023-05-10T04:25:49;100996.88;;;13.91
63297;BMP280;49419;51.716;-4.948;2023-05-10T04:28:38;100990.84;;;13.90
63297;BMP280;49419;51.716;-4.948;2023-05-10T04:31:28;100996.88;;;13.91
63297;BMP280;49419;51.716;-4.948;2023-05-10T04:36:54;100992.63;;;13.93
63297;BMP280;49419;51.716;-4.948;2023-05-10T04:39:19;101002.22;;;13.97
63297;BMP280;49419;51.716;-4.948;2023-05-10T04:42:14;101000.38;;;13.93
63297;BMP280;49419;51.716;-4.948;2023-05-10T04:47:37;101002.28;;;13.98
63297;BMP280;49419;51.716;-4.948;2023-05-10T04:50:21;100992.91;;;14.00
63297;BMP280;49419;51.716;-4.948;2023-05-10T04:53:28;100996.38;;;14.02
63297;BMP280;49419;51.716;-4.948;2023-05-10T04:55:56;101006.81;;;14.07
63297;BMP280;49419;51.716;-4.948;2023-05-10T04:58:36;101003.28;;;14.03
63297;BMP280;49419;51.716;-4.948;2023-05-10T05:07:39;101004.91;;;14.00
63297;BMP280;49419;51.716;-4.948;2023-05-10T05:10:20;101010.19;;;14.04
63297;BMP280;49419;51.716;-4.948;2023-05-10T05:12:45;101002.31;;;14.00
63297;BMP280;49419;51.716;-4.948;2023-05-10T05:15:14;101007.38;;;13.97
63297;BMP280;49419;51.716;-4.948;2023-05-10T05:17:43;101005.63;;;13.96
63297;BMP280;49419;51.716;-4.948;2023-05-10T05:20:09;101015.13;;;13.97
63297;BMP280;49419;51.716;-4.948;2023-05-10T05:23:16;101000.38;;;13.93
63297;BMP280;49419;51.716;-4.948;2023-05-10T05:25:52;101008.22;;;13.96
63297;BMP280;49419;51.716;-4.948;2023-05-10T05:28:40;101013.38;;;13.96
63297;BMP280;49419;51.716;-4.948;2023-05-10T05:34:32;101005.75;;;13.99
63297;BMP280;49419;51.716;-4.948;2023-05-10T05:37:06;101010.03;;;13.98
63297;BMP280;49419;51.716;-4.948;2023-05-10T05:39:59;101020.50;;;14.03
63297;BMP280;49419;51.716;-4.948;2023-05-10T05:43:23;101015.34;;;14.03
63297;BMP280;49419;51.716;-4.948;2023-05-10T05:46:06;101005.09;;;14.06
63297;BMP280;49419;51.716;-4.948;2023-05-10T05:51:52;101025.09;;;14.14
63297;BMP280;49419;51.716;-4.948;2023-05-10T05:54:25;101022.66;;;14.18
63297;BMP280;49419;51.716;-4.948;2023-05-10T05:57:01;101024.28;;;14.15
63297;BMP280;49419;51.716;-4.948;2023-05-10T05:59:50;101022.66;;;14.18
63297;BMP280;49419;51.716;-4.948;2023-05-10T06:05:17;101041.91;;;14.29
63297;BMP280;49419;51.716;-4.948;2023-05-10T06:07:42;101031.66;;;14.32
63297;BMP280;49419;51.716;-4.948;2023-05-10T06:13:52;101042.44;;;14.50
63297;BMP280;49419;51.716;-4.948;2023-05-10T06:16:28;101040.00;;;14.54
63297;BMP280;49419;51.716;-4.948;2023-05-10T06:18:53;101045.34;;;14.60
63297;BMP280;49419;51.716;-4.948;2023-05-10T06:21:39;101046.28;;;14.64
63297;BMP280;49419;51.716;-4.948;2023-05-10T06:24:05;101051.50;;;14.67
63297;BMP280;49419;51.716;-4.948;2023-05-10T06:26:33;101059.31;;;14.68
63297;BMP280;49419;51.716;-4.948;2023-05-10T06:29:33;101048.13;;;14.68
63297;BMP280;49419;51.716;-4.948;2023-05-10T06:32:42;101056.84;;;14.73
63297;BMP280;49419;51.716;-4.948;2023-05-10T06:35:43;101051.69;;;14.73
63297;BMP280;49419;51.716;-4.948;2023-05-10T06:38:14;101058.84;;;14.82
63297;BMP280;49419;51.716;-4.948;2023-05-10T06:40:55;101068.38;;;14.85
63297;BMP280;49419;51.716;-4.948;2023-05-10T06:43:32;101056.13;;;14.78
63297;BMP280;49419;51.716;-4.948;2023-05-10T06:46:40;101058.66;;;14.75
63297;BMP280;49419;51.716;-4.948;2023-05-10T06:49:29;101066.31;;;14.72
63297;BMP280;49419;51.716;-4.948;2023-05-10T06:52:18;101068.00;;;14.72
63297;BMP280;49419;51.716;-4.948;2023-05-10T07:01:41;101082.81;;;14.77
63297;BMP280;49419;51.716;-4.948;2023-05-10T07:07:42;101071.44;;;14.71
63297;BMP280;49419;51.716;-4.948;2023-05-10T07:10:30;101076.69;;;14.74
63297;BMP280;49419;51.716;-4.948;2023-05-10T07:16:55;101078.66;;;14.83
63297;BMP280;49419;51.716;-4.948;2023-05-10T07:19:53;101083.22;;;14.92
63297;BMP280;49419;51.716;-4.948;2023-05-10T17:08:42;101092.31;;;22.81
63297;BMP280;49419;51.716;-4.948;2023-05-10T19:27:11;101146.31;;;15.32
63297;BMP280;49419;51.716;-4.948;2023-05-10T19:33:31;101143.38;;;15.18
63297;BMP280;49419;51.716;-4.948;2023-05-10T19:36:04;101151.09;;;15.17
63297;BMP280;49419;51.716;-4.948;2023-05-10T19:39:03;101147.63;;;15.15
63297;BMP280;49419;51.716;-4.948;2023-05-10T19:48:59;101149.22;;;15.12
63297;BMP280;49419;51.716;-4.948;2023-05-10T19:52:27;101161.44;;;15.17
63297;BMP280;49419;51.716;-4.948;2023-05-10T19:58:50;101158.50;;;15.05
63297;BMP280;49419;51.716;-4.948;2023-05-10T20:01:44;101160.28;;;15.08
63297;BMP280;49419;51.716;-4.948;2023-05-10T20:04:15;101161.97;;;15.06
63297;BMP280;49419;51.716;-4.948;2023-05-10T20:06:53;101161.97;;;15.06
63297;BMP280;49419;51.716;-4.948;2023-05-10T20:09:41;101162.00;;;15.07
63297;BMP280;49419;51.716;-4.948;2023-05-10T20:12:23;101162.88;;;15.08
63297;BMP280;49419;51.716;-4.948;2023-05-10T20:28:47;101164.50;;;15.04
63297;BMP280;49419;51.716;-4.948;2023-05-10T20:37:26;101171.09;;;14.93
63297;BMP280;49419;51.716;-4.948;2023-05-10T20:40:36;101166.69;;;14.89
63297;BMP280;49419;51.716;-4.948;2023-05-10T20:43:39;101174.44;;;14.89
63297;BMP280;49419;51.716;-4.948;2023-05-10T20:46:31;101183.03;;;14.88
63297;BMP280;49419;51.716;-4.948;2023-05-10T20:56:00;101178.63;;;14.84
63297;BMP280;49419;51.716;-4.948;2023-05-10T20:58:37;101178.63;;;14.84
63297;BMP280;49419;51.716;-4.948;2023-05-10T21:05:11;101173.41;;;14.83
63297;BMP280;49419;51.716;-4.948;2023-05-10T21:07:59;101175.13;;;14.82
63297;BMP280;49419;51.716;-4.948;2023-05-10T21:10:42;101176.91;;;14.85
63297;BMP280;49419;51.716;-4.948;2023-05-10T21:16:46;101175.25;;;14.87
63297;BMP280;49419;51.716;-4.948;2023-05-10T21:20:17;101181.28;;;14.87
63297;BMP280;49419;51.716;-4.948;2023-05-10T21:23:04;101181.34;;;14.89
63297;BMP280;49419;51.716;-4.948;2023-05-10T21:29:04;101183.88;;;14.87
63297;BMP280;49419;51.716;-4.948;2023-05-10T21:31:33;101195.06;;;14.86
63297;BMP280;49419;51.716;-4.948;2023-05-10T21:33:58;101181.22;;;14.84
63297;BMP280;49419;51.716;-4.948;2023-05-10T21:36:24;101178.50;;;14.80
63297;BMP280;49419;51.716;-4.948;2023-05-10T21:39:09;101177.44;;;14.74
63297;BMP280;49419;51.716;-4.948;2023-05-10T21:41:35;101181.88;;;14.78
63297;BMP280;49419;51.716;-4.948;2023-05-10T21:44:03;101182.59;;;14.74
63297;BMP280;49419;51.716;-4.948;2023-05-10T21:46:43;101177.41;;;14.72
63297;BMP280;49419;51.716;-4.948;2023-05-10T21:49:10;101184.31;;;14.73
63297;BMP280;49419;51.716;-4.948;2023-05-10T21:51:36;101176.50;;;14.70
63297;BMP280;49419;51.716;-4.948;2023-05-10T21:54:17;101173.06;;;14.71
63297;BMP280;49419;51.716;-4.948;2023-05-10T21:56:44;101187.63;;;14.68
63297;BMP280;49419;51.716;-4.948;2023-05-10T21:59:09;101185.13;;;14.71
63297;BMP280;49419;51.716;-4.948;2023-05-10T22:01:57;101191.22;;;14.74
63297;BMP280;49419;51.716;-4.948;2023-05-10T22:04:22;101167.81;;;14.68
63297;BMP280;49419;51.716;-4.948;2023-05-10T22:07:05;101169.56;;;14.69
63297;BMP280;49419;51.716;-4.948;2023-05-10T22:09:31;101174.78;;;14.71
63297;BMP280;49419;51.716;-4.948;2023-05-10T22:11:58;101176.56;;;14.73
63297;BMP280;49419;51.716;-4.948;2023-05-10T22:14:40;101179.16;;;14.73
63297;BMP280;49419;51.716;-4.948;2023-05-10T22:17:08;101173.84;;;14.69
63297;BMP280;49419;51.716;-4.948;2023-05-10T22:19:34;101175.69;;;14.73
63297;BMP280;49419;51.716;-4.948;2023-05-10T22:21:59;101179.22;;;14.75
63297;BMP280;49419;51.716;-4.948;2023-05-10T22:24:25;101186.97;;;14.75
63297;BMP280;49419;51.716;-4.948;2023-05-10T22:27:09;101176.56;;;14.73
63297;BMP280;49419;51.716;-4.948;2023-05-10T22:29:34;101173.06;;;14.71
63297;BMP280;49419;51.716;-4.948;2023-05-10T22:32:01;101173.94;;;14.72
63297;BMP280;49419;51.716;-4.948;2023-05-10T22:34:48;101177.41;;;14.72
63297;BMP280;49419;51.716;-4.948;2023-05-10T22:37:31;101181.75;;;14.73
63297;BMP280;49419;51.716;-4.948;2023-05-10T22:39:56;101183.47;;;14.73
63297;BMP280;49419;51.716;-4.948;2023-05-10T22:42:48;101175.44;;;14.64
63297;BMP280;49419;51.716;-4.948;2023-05-10T22:45:37;101175.44;;;14.64
63297;BMP280;49419;51.716;-4.948;2023-05-10T22:48:20;101178.75;;;14.60
63297;BMP280;49419;51.716;-4.948;2023-05-10T22:50:46;101173.50;;;14.57
63297;BMP280;49419;51.716;-4.948;2023-05-10T22:53:11;101182.09;;;14.56
63297;BMP280;49419;51.716;-4.948;2023-05-10T22:55:57;101177.53;;;14.47
63297;BMP280;49419;51.716;-4.948;2023-05-10T22:58:30;101186.22;;;14.49
63297;BMP280;49419;51.716;-4.948;2023-05-10T23:00:58;101186.94;;;14.46
63297;BMP280;49419;51.716;-4.948;2023-05-10T23:03:30;101186.94;;;14.44
63297;BMP280;49419;51.716;-4.948;2023-05-10T23:05:55;101192.16;;;14.47
63297;BMP280;49419;51.716;-4.948;2023-05-10T23:08:23;101186.06;;;14.44
63297;BMP280;49419;51.716;-4.948;2023-05-10T23:10:52;101194.81;;;14.48
63297;BMP280;49419;51.716;-4.948;2023-05-10T23:13:36;101193.03;;;14.46
63297;BMP280;49419;51.716;-4.948;2023-05-10T23:16:16;101198.13;;;14.45
63297;BMP280;49419;51.716;-4.948;2023-05-10T23:18:42;101192.88;;;14.42
63297;BMP280;49419;51.716;-4.948;2023-05-10T23:21:08;101202.34;;;14.41
63297;BMP280;49419;51.716;-4.948;2023-05-10T23:23:33;101197.19;;;14.43
63297;BMP280;49419;51.716;-4.948;2023-05-10T23:25:59;101195.47;;;14.43
63297;BMP280;49419;51.716;-4.948;2023-05-10T23:28:30;101196.31;;;14.42
63297;BMP280;49419;51.716;-4.948;2023-05-10T23:31:00;101192.88;;;14.42
63297;BMP280;49419;51.716;-4.948;2023-05-10T23:33:33;101193.66;;;14.39
63297;BMP280;49419;51.716;-4.948;2023-05-10T23:35:58;101192.00;;;14.41
63297;BMP280;49419;51.716;-4.948;2023-05-10T23:38:46;101181.47;;;14.35
63297;BMP280;49419;51.716;-4.948;2023-05-10T23:41:11;101191.91;;;14.38
63297;BMP280;49419;51.716;-4.948;2023-05-10T23:43:37;101200.56;;;14.40
63297;BMP280;49419;51.716;-4.948;2023-05-10T23:46:16;101207.38;;;14.37
63297;BMP280;49419;51.716;-4.948;2023-05-10T23:48:42;101191.81;;;14.35
63297;BMP280;49419;51.716;-4.948;2023-05-10T23:51:10;101205.66;;;14.37
63297;BMP280;49419;51.716;-4.948;2023-05-10T23:53:36;101203.78;;;14.33
63297;BMP280;49419;51.716;-4.948;2023-05-10T23:56:03;101200.22;;;14.28
63297;BMP280;49419;51.716;-4.948;2023-05-10T23:59:07;101201.75;;;14.22
